sensor_id;sensor_type;location;lat;lon;timestamp;P1;durP1;ratioP1;P2;durP2;ratioP2
8663;SDS011;4369;47.842;13.096;2022-07-23T00:01:36;5.47;;;5.03;;
8663;SDS011;4369;47.842;13.096;2022-07-23T00:04:03;7.13;;;6.30;;
8663;SDS011;4369;47.842;13.096;2022-07-23T00:06:30;6.60;;;5.87;;
8663;SDS011;4369;47.842;13.096;2022-07-23T00:08:58;6.50;;;6.00;;
8663;SDS011;4369;47.842;13.096;2022-07-23T00:11:25;6.77;;;6.00;;
8663;SDS011;4369;47.842;13.096;2022-07-23T00:13:52;7.00;;;6.30;;
8663;SDS011;4369;47.842;13.096;2022-07-23T00:16:20;7.30;;;6.13;;
8663;SDS011;4369;47.842;13.096;2022-07-23T00:18:46;6.77;;;6.00;;
8663;SDS011;4369;47.842;13.096;2022-07-23T00:21:13;6.97;;;6.37;;
8663;SDS011;4369;47.842;13.096;2022-07-23T00:23:40;6.93;;;6.40;;
8663;SDS011;4369;47.842;13.096;2022-07-23T00:26:08;5.97;;;5.47;;
8663;SDS011;4369;47.842;13.096;2022-07-23T00:28:35;6.27;;;5.60;;
8663;SDS011;4369;47.842;13.096;2022-07-23T00:31:02;6.20;;;5.60;;
8663;SDS011;4369;47.842;13.096;2022-07-23T00:33:29;5.63;;;5.00;;
8663;SDS011;4369;47.842;13.096;2022-07-23T00:35:56;5.50;;;5.00;;
8663;SDS011;4369;47.842;13.096;2022-07-23T00:38:22;4.73;;;4.40;;
8663;SDS011;4369;47.842;13.096;2022-07-23T00:40:49;5.10;;;4.60;;
8663;SDS011;4369;47.842;13.096;2022-07-23T00:43:18;6.17;;;5.57;;
8663;SDS011;4369;47.842;13.096;2022-07-23T00:45:46;4.50;;;4.10;;
8663;SDS011;4369;47.842;13.096;2022-07-23T00:48:13;4.80;;;4.40;;
8663;SDS011;4369;47.842;13.096;2022-07-23T00:50:40;4.83;;;4.23;;
8663;SDS011;4369;47.842;13.096;2022-07-23T00:53:08;4.60;;;4.20;;
8663;SDS011;4369;47.842;13.096;2022-07-23T00:55:35;4.83;;;4.43;;
8663;SDS011;4369;47.842;13.096;2022-07-23T00:58:02;5.83;;;5.43;;
8663;SDS011;4369;47.842;13.096;2022-07-23T01:00:30;5.73;;;5.10;;
8663;SDS011;4369;47.842;13.096;2022-07-23T01:02:57;5.37;;;4.97;;
8663;SDS011;4369;47.842;13.096;2022-07-23T01:05:24;5.37;;;4.90;;
8663;SDS011;4369;47.842;13.096;2022-07-23T01:07:51;4.30;;;4.00;;
8663;SDS011;4369;47.842;13.096;2022-07-23T01:10:25;4.30;;;3.90;;
8663;SDS011;4369;47.842;13.096;2022-07-23T01:12:58;4.20;;;3.80;;
8663;SDS011;4369;47.842;13.096;2022-07-23T01:15:26;4.73;;;4.33;;
8663;SDS011;4369;47.842;13.096;2022-07-23T01:17:54;5.47;;;4.97;;
8663;SDS011;4369;47.842;13.096;2022-07-23T01:20:21;5.27;;;4.77;;
8663;SDS011;4369;47.842;13.096;2022-07-23T01:22:50;5.80;;;5.30;;
8663;SDS011;4369;47.842;13.096;2022-07-23T01:25:17;5.67;;;5.23;;
8663;SDS011;4369;47.842;13.096;2022-07-23T01:27:44;5.87;;;5.37;;
8663;SDS011;4369;47.842;13.096;2022-07-23T01:30:11;5.73;;;5.23;;
8663;SDS011;4369;47.842;13.096;2022-07-23T01:32:38;5.50;;;5.00;;
8663;SDS011;4369;47.842;13.096;2022-07-23T01:35:06;5.93;;;5.33;;
8663;SDS011;4369;47.842;13.096;2022-07-23T01:37:34;5.67;;;5.17;;
8663;SDS011;4369;47.842;13.096;2022-07-23T01:40:02;5.40;;;4.97;;
8663;SDS011;4369;47.842;13.096;2022-07-23T01:42:30;6.60;;;5.10;;
8663;SDS011;4369;47.842;13.096;2022-07-23T01:44:57;5.57;;;5.07;;
8663;SDS011;4369;47.842;13.096;2022-07-23T01:47:24;6.17;;;5.57;;
8663;SDS011;4369;47.842;13.096;2022-07-23T01:49:52;5.70;;;5.20;;
8663;SDS011;4369;47.842;13.096;2022-07-23T01:52:19;5.50;;;5.00;;
8663;SDS011;4369;47.842;13.096;2022-07-23T01:54:45;5.70;;;5.07;;
8663;SDS011;4369;47.842;13.096;2022-07-23T01:57:14;5.37;;;4.90;;
8663;SDS011;4369;47.842;13.096;2022-07-23T01:59:40;6.43;;;5.83;;
8663;SDS011;4369;47.842;13.096;2022-07-23T02:02:07;5.77;;;5.27;;
8663;SDS011;4369;47.842;13.096;2022-07-23T02:04:34;6.27;;;5.67;;
8663;SDS011;4369;47.842;13.096;2022-07-23T02:07:01;6.30;;;5.77;;
8663;SDS011;4369;47.842;13.096;2022-07-23T02:09:30;5.80;;;5.30;;
8663;SDS011;4369;47.842;13.096;2022-07-23T02:11:56;6.40;;;5.80;;
8663;SDS011;4369;47.842;13.096;2022-07-23T02:14:25;5.63;;;5.17;;
8663;SDS011;4369;47.842;13.096;2022-07-23T02:16:52;5.83;;;5.30;;
8663;SDS011;4369;47.842;13.096;2022-07-23T02:19:19;5.53;;;5.03;;
8663;SDS011;4369;47.842;13.096;2022-07-23T02:21:46;6.10;;;5.30;;
8663;SDS011;4369;47.842;13.096;2022-07-23T02:24:13;6.17;;;5.43;;
8663;SDS011;4369;47.842;13.096;2022-07-23T02:26:40;6.10;;;5.50;;
8663;SDS011;4369;47.842;13.096;2022-07-23T02:29:06;5.57;;;5.07;;
8663;SDS011;4369;47.842;13.096;2022-07-23T02:31:35;5.77;;;5.33;;
8663;SDS011;4369;47.842;13.096;2022-07-23T02:34:02;5.90;;;5.40;;
8663;SDS011;4369;47.842;13.096;2022-07-23T02:36:29;6.23;;;5.50;;
8663;SDS011;4369;47.842;13.096;2022-07-23T02:38:56;6.07;;;5.47;;
8663;SDS011;4369;47.842;13.096;2022-07-23T02:41:23;7.83;;;5.70;;
8663;SDS011;4369;47.842;13.096;2022-07-23T02:43:50;6.23;;;5.13;;
8663;SDS011;4369;47.842;13.096;2022-07-23T02:46:17;6.40;;;5.40;;
8663;SDS011;4369;47.842;13.096;2022-07-23T02:48:45;6.23;;;5.63;;
8663;SDS011;4369;47.842;13.096;2022-07-23T02:51:12;6.10;;;5.50;;
8663;SDS011;4369;47.842;13.096;2022-07-23T02:53:39;5.80;;;5.30;;
8663;SDS011;4369;47.842;13.096;2022-07-23T02:56:05;7.07;;;5.50;;
8663;SDS011;4369;47.842;13.096;2022-07-23T02:58:32;5.83;;;5.33;;
8663;SDS011;4369;47.842;13.096;2022-07-23T03:00:59;5.70;;;5.07;;
8663;SDS011;4369;47.842;13.096;2022-07-23T03:03:26;6.87;;;4.80;;
8663;SDS011;4369;47.842;13.096;2022-07-23T03:05:55;5.97;;;4.97;;
8663;SDS011;4369;47.842;13.096;2022-07-23T03:08:21;5.87;;;5.13;;
8663;SDS011;4369;47.842;13.096;2022-07-23T03:10:48;6.43;;;5.40;;
8663;SDS011;4369;47.842;13.096;2022-07-23T03:13:15;5.47;;;4.97;;
8663;SDS011;4369;47.842;13.096;2022-07-23T03:15:42;4.90;;;4.43;;
8663;SDS011;4369;47.842;13.096;2022-07-23T03:18:09;5.90;;;5.30;;
8663;SDS011;4369;47.842;13.096;2022-07-23T03:20:36;6.03;;;5.50;;
8663;SDS011;4369;47.842;13.096;2022-07-23T03:23:04;6.00;;;5.50;;
8663;SDS011;4369;47.842;13.096;2022-07-23T03:25:31;5.77;;;5.37;;
8663;SDS011;4369;47.842;13.096;2022-07-23T03:27:58;6.33;;;5.80;;
8663;SDS011;4369;47.842;13.096;2022-07-23T03:30:25;6.47;;;5.70;;
8663;SDS011;4369;47.842;13.096;2022-07-23T03:32:52;6.80;;;5.50;;
8663;SDS011;4369;47.842;13.096;2022-07-23T03:35:19;6.10;;;5.53;;
8663;SDS011;4369;47.842;13.096;2022-07-23T03:37:45;6.50;;;5.70;;
8663;SDS011;4369;47.842;13.096;2022-07-23T03:40:14;6.20;;;5.60;;
8663;SDS011;4369;47.842;13.096;2022-07-23T03:42:40;6.53;;;5.53;;
8663;SDS011;4369;47.842;13.096;2022-07-23T03:45:08;7.57;;;6.13;;
8663;SDS011;4369;47.842;13.096;2022-07-23T03:47:36;6.93;;;6.23;;
8663;SDS011;4369;47.842;13.096;2022-07-23T03:50:04;7.50;;;6.70;;
8663;SDS011;4369;47.842;13.096;2022-07-23T03:52:31;8.07;;;7.00;;
8663;SDS011;4369;47.842;13.096;2022-07-23T03:54:58;7.50;;;6.70;;
8663;SDS011;4369;47.842;13.096;2022-07-23T03:57:26;7.77;;;6.83;;
8663;SDS011;4369;47.842;13.096;2022-07-23T03:59:53;10.53;;;7.40;;
8663;SDS011;4369;47.842;13.096;2022-07-23T04:02:20;8.80;;;7.43;;
8663;SDS011;4369;47.842;13.096;2022-07-23T04:04:47;8.00;;;7.17;;
8663;SDS011;4369;47.842;13.096;2022-07-23T04:07:14;8.00;;;6.67;;
8663;SDS011;4369;47.842;13.096;2022-07-23T04:09:42;7.80;;;7.03;;
8663;SDS011;4369;47.842;13.096;2022-07-23T04:12:09;8.93;;;7.27;;
8663;SDS011;4369;47.842;13.096;2022-07-23T04:14:38;7.93;;;6.83;;
8663;SDS011;4369;47.842;13.096;2022-07-23T04:17:04;7.70;;;6.90;;
8663;SDS011;4369;47.842;13.096;2022-07-23T04:19:31;10.00;;;6.87;;
8663;SDS011;4369;47.842;13.096;2022-07-23T04:21:58;7.83;;;7.07;;
8663;SDS011;4369;47.842;13.096;2022-07-23T04:24:25;7.70;;;6.90;;
8663;SDS011;4369;47.842;13.096;2022-07-23T04:26:52;8.43;;;6.80;;
8663;SDS011;4369;47.842;13.096;2022-07-23T04:29:19;7.80;;;7.10;;
8663;SDS011;4369;47.842;13.096;2022-07-23T04:31:47;7.37;;;6.67;;
8663;SDS011;4369;47.842;13.096;2022-07-23T04:34:14;8.17;;;7.47;;
8663;SDS011;4369;47.842;13.096;2022-07-23T04:36:40;7.33;;;6.60;;
8663;SDS011;4369;47.842;13.096;2022-07-23T04:39:07;7.53;;;6.80;;
8663;SDS011;4369;47.842;13.096;2022-07-23T04:41:34;9.83;;;6.90;;
8663;SDS011;4369;47.842;13.096;2022-07-23T04:44:01;6.33;;;5.73;;
8663;SDS011;4369;47.842;13.096;2022-07-23T04:46:28;6.80;;;6.10;;
8663;SDS011;4369;47.842;13.096;2022-07-23T04:48:57;6.83;;;6.07;;
8663;SDS011;4369;47.842;13.096;2022-07-23T04:51:24;7.37;;;5.70;;
8663;SDS011;4369;47.842;13.096;2022-07-23T04:53:51;7.37;;;6.67;;
8663;SDS011;4369;47.842;13.096;2022-07-23T04:56:18;7.80;;;6.30;;
8663;SDS011;4369;47.842;13.096;2022-07-23T04:58:44;10.13;;;6.07;;
8663;SDS011;4369;47.842;13.096;2022-07-23T05:01:11;7.10;;;6.40;;
8663;SDS011;4369;47.842;13.096;2022-07-23T05:03:38;7.33;;;6.70;;
8663;SDS011;4369;47.842;13.096;2022-07-23T05:06:06;8.20;;;6.43;;
8663;SDS011;4369;47.842;13.096;2022-07-23T05:08:34;6.93;;;6.33;;
8663;SDS011;4369;47.842;13.096;2022-07-23T05:11:01;7.13;;;6.50;;
8663;SDS011;4369;47.842;13.096;2022-07-23T05:13:28;8.03;;;6.50;;
8663;SDS011;4369;47.842;13.096;2022-07-23T05:15:54;6.70;;;6.03;;
8663;SDS011;4369;47.842;13.096;2022-07-23T05:18:21;7.13;;;5.93;;
8663;SDS011;4369;47.842;13.096;2022-07-23T05:20:48;6.90;;;6.30;;
8663;SDS011;4369;47.842;13.096;2022-07-23T05:23:16;6.80;;;6.30;;
8663;SDS011;4369;47.842;13.096;2022-07-23T05:25:43;7.67;;;6.63;;
8663;SDS011;4369;47.842;13.096;2022-07-23T05:28:10;8.37;;;6.37;;
8663;SDS011;4369;47.842;13.096;2022-07-23T05:30:37;7.10;;;6.50;;
8663;SDS011;4369;47.842;13.096;2022-07-23T05:33:03;6.17;;;5.67;;
8663;SDS011;4369;47.842;13.096;2022-07-23T05:35:32;7.03;;;6.20;;
8663;SDS011;4369;47.842;13.096;2022-07-23T05:37:59;6.73;;;5.83;;
8663;SDS011;4369;47.842;13.096;2022-07-23T05:40:27;6.77;;;6.07;;
8663;SDS011;4369;47.842;13.096;2022-07-23T05:42:54;7.40;;;6.70;;
8663;SDS011;4369;47.842;13.096;2022-07-23T05:45:21;7.60;;;6.57;;
8663;SDS011;4369;47.842;13.096;2022-07-23T05:47:48;7.20;;;6.50;;
8663;SDS011;4369;47.842;13.096;2022-07-23T05:50:16;7.43;;;6.63;;
8663;SDS011;4369;47.842;13.096;2022-07-23T05:52:43;6.97;;;6.20;;
8663;SDS011;4369;47.842;13.096;2022-07-23T05:55:10;7.27;;;6.67;;
8663;SDS011;4369;47.842;13.096;2022-07-23T05:57:39;7.30;;;6.60;;
8663;SDS011;4369;47.842;13.096;2022-07-23T06:00:08;6.43;;;5.87;;
8663;SDS011;4369;47.842;13.096;2022-07-23T06:02:35;6.93;;;6.23;;
8663;SDS011;4369;47.842;13.096;2022-07-23T06:05:05;7.13;;;6.47;;
8663;SDS011;4369;47.842;13.096;2022-07-23T06:07:34;6.80;;;6.10;;
8663;SDS011;4369;47.842;13.096;2022-07-23T06:10:01;6.87;;;6.20;;
8663;SDS011;4369;47.842;13.096;2022-07-23T06:12:29;8.10;;;6.30;;
8663;SDS011;4369;47.842;13.096;2022-07-23T06:14:57;7.23;;;6.33;;
8663;SDS011;4369;47.842;13.096;2022-07-23T06:17:25;6.77;;;6.10;;
8663;SDS011;4369;47.842;13.096;2022-07-23T06:19:53;6.50;;;5.87;;
8663;SDS011;4369;47.842;13.096;2022-07-23T06:22:20;7.20;;;6.33;;
8663;SDS011;4369;47.842;13.096;2022-07-23T06:24:48;6.37;;;5.77;;
8663;SDS011;4369;47.842;13.096;2022-07-23T06:27:15;6.80;;;6.17;;
8663;SDS011;4369;47.842;13.096;2022-07-23T06:29:42;6.43;;;5.83;;
8663;SDS011;4369;47.842;13.096;2022-07-23T06:32:11;7.07;;;6.37;;
8663;SDS011;4369;47.842;13.096;2022-07-23T06:34:37;7.13;;;6.27;;
8663;SDS011;4369;47.842;13.096;2022-07-23T06:37:04;6.53;;;6.00;;
8663;SDS011;4369;47.842;13.096;2022-07-23T06:39:31;7.93;;;6.23;;
8663;SDS011;4369;47.842;13.096;2022-07-23T06:41:58;7.47;;;6.73;;
8663;SDS011;4369;47.842;13.096;2022-07-23T06:44:26;6.87;;;6.27;;
8663;SDS011;4369;47.842;13.096;2022-07-23T06:46:53;6.87;;;6.00;;
8663;SDS011;4369;47.842;13.096;2022-07-23T06:49:21;7.47;;;6.43;;
8663;SDS011;4369;47.842;13.096;2022-07-23T06:51:48;6.60;;;6.10;;
8663;SDS011;4369;47.842;13.096;2022-07-23T06:54:15;7.00;;;6.30;;
8663;SDS011;4369;47.842;13.096;2022-07-23T06:56:42;6.87;;;6.00;;
8663;SDS011;4369;47.842;13.096;2022-07-23T06:59:08;6.80;;;6.10;;
8663;SDS011;4369;47.842;13.096;2022-07-23T07:01:36;6.57;;;5.87;;
8663;SDS011;4369;47.842;13.096;2022-07-23T07:04:02;6.20;;;5.70;;
8663;SDS011;4369;47.842;13.096;2022-07-23T07:06:31;6.30;;;5.70;;
8663;SDS011;4369;47.842;13.096;2022-07-23T07:08:58;6.40;;;5.80;;
8663;SDS011;4369;47.842;13.096;2022-07-23T07:11:24;6.80;;;6.20;;
8663;SDS011;4369;47.842;13.096;2022-07-23T07:13:51;23.33;;;8.50;;
8663;SDS011;4369;47.842;13.096;2022-07-23T07:16:18;8.50;;;7.27;;
8663;SDS011;4369;47.842;13.096;2022-07-23T07:18:45;7.70;;;6.90;;
8663;SDS011;4369;47.842;13.096;2022-07-23T07:21:12;8.03;;;6.57;;
8663;SDS011;4369;47.842;13.096;2022-07-23T07:23:40;9.53;;;6.93;;
8663;SDS011;4369;47.842;13.096;2022-07-23T07:26:07;6.57;;;6.00;;
8663;SDS011;4369;47.842;13.096;2022-07-23T07:28:34;7.10;;;6.00;;
8663;SDS011;4369;47.842;13.096;2022-07-23T07:31:01;6.50;;;5.87;;
8663;SDS011;4369;47.842;13.096;2022-07-23T07:33:28;6.27;;;5.73;;
8663;SDS011;4369;47.842;13.096;2022-07-23T07:35:57;6.20;;;5.70;;
8663;SDS011;4369;47.842;13.096;2022-07-23T07:38:25;6.63;;;5.80;;
8663;SDS011;4369;47.842;13.096;2022-07-23T07:40:53;6.53;;;5.93;;
8663;SDS011;4369;47.842;13.096;2022-07-23T07:43:20;7.27;;;5.67;;
8663;SDS011;4369;47.842;13.096;2022-07-23T07:45:47;9.30;;;6.03;;
8663;SDS011;4369;47.842;13.096;2022-07-23T07:48:14;6.03;;;5.53;;
8663;SDS011;4369;47.842;13.096;2022-07-23T07:50:41;6.30;;;5.80;;
8663;SDS011;4369;47.842;13.096;2022-07-23T07:53:08;6.47;;;5.90;;
8663;SDS011;4369;47.842;13.096;2022-07-23T07:55:36;6.83;;;6.20;;
8663;SDS011;4369;47.842;13.096;2022-07-23T07:58:04;6.20;;;5.60;;
8663;SDS011;4369;47.842;13.096;2022-07-23T08:00:31;6.40;;;5.70;;
8663;SDS011;4369;47.842;13.096;2022-07-23T08:02:58;6.60;;;5.73;;
8663;SDS011;4369;47.842;13.096;2022-07-23T08:05:26;6.30;;;5.70;;
8663;SDS011;4369;47.842;13.096;2022-07-23T08:07:54;6.63;;;5.90;;
8663;SDS011;4369;47.842;13.096;2022-07-23T08:10:21;5.70;;;5.30;;
8663;SDS011;4369;47.842;13.096;2022-07-23T08:12:49;6.57;;;5.93;;
8663;SDS011;4369;47.842;13.096;2022-07-23T08:15:20;6.33;;;5.73;;
8663;SDS011;4369;47.842;13.096;2022-07-23T08:17:48;5.80;;;5.40;;
8663;SDS011;4369;47.842;13.096;2022-07-23T08:20:17;8.57;;;6.30;;
8663;SDS011;4369;47.842;13.096;2022-07-23T08:22:46;6.63;;;6.03;;
8663;SDS011;4369;47.842;13.096;2022-07-23T08:25:14;6.37;;;5.77;;
8663;SDS011;4369;47.842;13.096;2022-07-23T08:27:42;6.20;;;5.60;;
8663;SDS011;4369;47.842;13.096;2022-07-23T08:30:09;6.30;;;5.63;;
8663;SDS011;4369;47.842;13.096;2022-07-23T08:32:51;6.33;;;5.73;;
8663;SDS011;4369;47.842;13.096;2022-07-23T08:35:24;6.50;;;5.83;;
8663;SDS011;4369;47.842;13.096;2022-07-23T08:37:52;5.77;;;5.27;;
8663;SDS011;4369;47.842;13.096;2022-07-23T08:40:19;6.80;;;5.77;;
8663;SDS011;4369;47.842;13.096;2022-07-23T08:42:47;6.90;;;6.00;;
8663;SDS011;4369;47.842;13.096;2022-07-23T08:45:16;6.10;;;5.60;;
8663;SDS011;4369;47.842;13.096;2022-07-23T08:47:45;7.17;;;6.17;;
8663;SDS011;4369;47.842;13.096;2022-07-23T08:50:16;6.80;;;6.20;;
8663;SDS011;4369;47.842;13.096;2022-07-23T08:52:43;6.43;;;5.47;;
8663;SDS011;4369;47.842;13.096;2022-07-23T08:55:10;6.60;;;6.00;;
8663;SDS011;4369;47.842;13.096;2022-07-23T08:57:38;7.20;;;6.53;;
8663;SDS011;4369;47.842;13.096;2022-07-23T09:00:05;6.53;;;6.00;;
8663;SDS011;4369;47.842;13.096;2022-07-23T09:02:38;6.47;;;5.97;;
8663;SDS011;4369;47.842;13.096;2022-07-23T09:05:06;6.43;;;5.90;;
8663;SDS011;4369;47.842;13.096;2022-07-23T09:07:34;6.37;;;5.77;;
8663;SDS011;4369;47.842;13.096;2022-07-23T09:10:06;6.10;;;5.47;;
8663;SDS011;4369;47.842;13.096;2022-07-23T09:12:34;6.50;;;6.00;;
8663;SDS011;4369;47.842;13.096;2022-07-23T09:15:05;6.23;;;5.73;;
8663;SDS011;4369;47.842;13.096;2022-07-23T09:17:39;7.10;;;6.40;;
8663;SDS011;4369;47.842;13.096;2022-07-23T09:20:07;6.60;;;5.97;;
8663;SDS011;4369;47.842;13.096;2022-07-23T09:22:37;6.93;;;6.32;;
8663;SDS011;4369;47.842;13.096;2022-07-23T09:25:05;6.85;;;6.20;;
8663;SDS011;4369;47.842;13.096;2022-07-23T09:27:50;6.68;;;6.07;;
8663;SDS011;4369;47.842;13.096;2022-07-23T09:30:19;7.78;;;6.70;;
8663;SDS011;4369;47.842;13.096;2022-07-23T09:35:48;6.80;;;6.20;;
8663;SDS011;4369;47.842;13.096;2022-07-23T09:38:18;6.80;;;6.10;;
8663;SDS011;4369;47.842;13.096;2022-07-23T09:40:46;7.38;;;5.90;;
8663;SDS011;4369;47.842;13.096;2022-07-23T09:43:30;7.53;;;5.75;;
8663;SDS011;4369;47.842;13.096;2022-07-23T09:48:42;7.53;;;6.35;;
8663;SDS011;4369;47.842;13.096;2022-07-23T09:51:09;6.88;;;6.22;;
8663;SDS011;4369;47.842;13.096;2022-07-23T09:53:37;7.10;;;6.50;;
8663;SDS011;4369;47.842;13.096;2022-07-23T09:56:04;7.20;;;6.50;;
8663;SDS011;4369;47.842;13.096;2022-07-23T09:58:33;6.88;;;6.20;;
8663;SDS011;4369;47.842;13.096;2022-07-23T10:01:10;6.78;;;6.18;;
8663;SDS011;4369;47.842;13.096;2022-07-23T10:03:39;6.22;;;5.72;;
8663;SDS011;4369;47.842;13.096;2022-07-23T10:06:07;6.90;;;6.40;;
8663;SDS011;4369;47.842;13.096;2022-07-23T10:08:35;6.07;;;5.57;;
8663;SDS011;4369;47.842;13.096;2022-07-23T10:11:06;6.43;;;5.88;;
8663;SDS011;4369;47.842;13.096;2022-07-23T10:13:34;6.13;;;5.63;;
8663;SDS011;4369;47.842;13.096;2022-07-23T10:16:18;6.53;;;5.93;;
8663;SDS011;4369;47.842;13.096;2022-07-23T10:18:45;6.82;;;6.22;;
8663;SDS011;4369;47.842;13.096;2022-07-23T10:21:13;6.70;;;6.10;;
8663;SDS011;4369;47.842;13.096;2022-07-23T10:23:57;7.47;;;6.78;;
8663;SDS011;4369;47.842;13.096;2022-07-23T10:26:35;6.10;;;5.70;;
8663;SDS011;4369;47.842;13.096;2022-07-23T10:29:11;6.70;;;6.10;;
8663;SDS011;4369;47.842;13.096;2022-07-23T10:31:50;6.60;;;6.00;;
8663;SDS011;4369;47.842;13.096;2022-07-23T10:34:24;6.32;;;5.72;;
8663;SDS011;4369;47.842;13.096;2022-07-23T10:36:57;7.35;;;6.65;;
8663;SDS011;4369;47.842;13.096;2022-07-23T10:39:33;6.88;;;6.28;;
8663;SDS011;4369;47.842;13.096;2022-07-23T10:42:09;6.95;;;6.45;;
8663;SDS011;4369;47.842;13.096;2022-07-23T10:44:39;6.57;;;5.95;;
8663;SDS011;4369;47.842;13.096;2022-07-23T10:47:08;6.93;;;6.32;;
8663;SDS011;4369;47.842;13.096;2022-07-23T10:55:51;7.10;;;6.40;;
8663;SDS011;4369;47.842;13.096;2022-07-23T10:58:20;7.00;;;6.50;;
8663;SDS011;4369;47.842;13.096;2022-07-23T11:00:49;7.10;;;6.43;;
8663;SDS011;4369;47.842;13.096;2022-07-23T11:03:32;7.20;;;6.60;;
8663;SDS011;4369;47.842;13.096;2022-07-23T11:06:01;7.03;;;6.43;;
8663;SDS011;4369;47.842;13.096;2022-07-23T11:08:29;7.15;;;6.55;;
8663;SDS011;4369;47.842;13.096;2022-07-23T11:11:08;7.28;;;6.68;;
8663;SDS011;4369;47.842;13.096;2022-07-23T11:13:37;6.95;;;6.25;;
8663;SDS011;4369;47.842;13.096;2022-07-23T11:16:13;7.32;;;6.72;;
8663;SDS011;4369;47.842;13.096;2022-07-23T11:18:54;7.05;;;6.40;;
8663;SDS011;4369;47.842;13.096;2022-07-23T11:21:51;7.18;;;6.57;;
8663;SDS011;4369;47.842;13.096;2022-07-23T11:24:19;7.05;;;6.47;;
8663;SDS011;4369;47.842;13.096;2022-07-23T11:26:54;7.05;;;6.43;;
8663;SDS011;4369;47.842;13.096;2022-07-23T11:29:46;8.15;;;6.65;;
8663;SDS011;4369;47.842;13.096;2022-07-23T11:32:32;7.03;;;6.53;;
8663;SDS011;4369;47.842;13.096;2022-07-23T11:35:20;7.18;;;6.47;;
8663;SDS011;4369;47.842;13.096;2022-07-23T11:37:50;7.43;;;6.82;;
8663;SDS011;4369;47.842;13.096;2022-07-23T11:40:23;7.47;;;6.63;;
8663;SDS011;4369;47.842;13.096;2022-07-23T11:42:53;6.68;;;6.18;;
8663;SDS011;4369;47.842;13.096;2022-07-23T11:45:22;6.70;;;6.20;;
8663;SDS011;4369;47.842;13.096;2022-07-23T11:47:50;7.32;;;6.72;;
8663;SDS011;4369;47.842;13.096;2022-07-23T11:50:17;7.47;;;6.90;;
8663;SDS011;4369;47.842;13.096;2022-07-23T11:52:44;7.20;;;6.50;;
8663;SDS011;4369;47.842;13.096;2022-07-23T11:55:11;7.25;;;6.65;;
8663;SDS011;4369;47.842;13.096;2022-07-23T11:57:41;6.57;;;5.97;;
8663;SDS011;4369;47.842;13.096;2022-07-23T12:00:11;8.85;;;6.28;;
8663;SDS011;4369;47.842;13.096;2022-07-23T12:02:41;7.13;;;6.53;;
8663;SDS011;4369;47.842;13.096;2022-07-23T12:05:11;6.63;;;5.97;;
8663;SDS011;4369;47.842;13.096;2022-07-23T12:07:39;6.97;;;6.38;;
8663;SDS011;4369;47.842;13.096;2022-07-23T12:10:09;6.50;;;6.00;;
8663;SDS011;4369;47.842;13.096;2022-07-23T12:12:40;6.70;;;6.10;;
8663;SDS011;4369;47.842;13.096;2022-07-23T12:15:10;6.70;;;6.10;;
8663;SDS011;4369;47.842;13.096;2022-07-23T12:17:38;5.68;;;5.18;;
8663;SDS011;4369;47.842;13.096;2022-07-23T12:20:08;6.50;;;5.95;;
8663;SDS011;4369;47.842;13.096;2022-07-23T12:22:38;6.50;;;6.00;;
8663;SDS011;4369;47.842;13.096;2022-07-23T12:25:07;6.57;;;6.07;;
8663;SDS011;4369;47.842;13.096;2022-07-23T12:27:36;5.88;;;5.38;;
8663;SDS011;4369;47.842;13.096;2022-07-23T12:30:18;5.82;;;5.28;;
8663;SDS011;4369;47.842;13.096;2022-07-23T12:32:50;5.70;;;5.20;;
8663;SDS011;4369;47.842;13.096;2022-07-23T12:35:18;5.50;;;5.10;;
8663;SDS011;4369;47.842;13.096;2022-07-23T12:37:50;5.82;;;5.35;;
8663;SDS011;4369;47.842;13.096;2022-07-23T12:40:27;5.13;;;4.80;;
8663;SDS011;4369;47.842;13.096;2022-07-23T12:42:58;5.90;;;5.30;;
8663;SDS011;4369;47.842;13.096;2022-07-23T12:45:28;5.65;;;5.22;;
8663;SDS011;4369;47.842;13.096;2022-07-23T12:48:08;6.07;;;5.45;;
8663;SDS011;4369;47.842;13.096;2022-07-23T12:50:43;5.30;;;4.90;;
8663;SDS011;4369;47.842;13.096;2022-07-23T12:53:15;5.80;;;5.30;;
8663;SDS011;4369;47.842;13.096;2022-07-23T12:55:43;6.15;;;5.55;;
8663;SDS011;4369;47.842;13.096;2022-07-23T12:58:12;5.32;;;4.93;;
8663;SDS011;4369;47.842;13.096;2022-07-23T13:03:35;6.32;;;5.72;;
8663;SDS011;4369;47.842;13.096;2022-07-23T13:06:04;6.00;;;5.50;;
8663;SDS011;4369;47.842;13.096;2022-07-23T13:14:20;5.97;;;5.47;;
8663;SDS011;4369;47.842;13.096;2022-07-23T13:16:49;5.93;;;5.30;;
8663;SDS011;4369;47.842;13.096;2022-07-23T13:19:18;6.22;;;5.63;;
8663;SDS011;4369;47.842;13.096;2022-07-23T13:21:47;6.32;;;5.55;;
8663;SDS011;4369;47.842;13.096;2022-07-23T13:24:14;6.05;;;5.50;;
8663;SDS011;4369;47.842;13.096;2022-07-23T13:26:41;6.43;;;5.82;;
8663;SDS011;4369;47.842;13.096;2022-07-23T13:29:17;6.32;;;5.72;;
8663;SDS011;4369;47.842;13.096;2022-07-23T13:31:44;6.05;;;5.55;;
8663;SDS011;4369;47.842;13.096;2022-07-23T13:34:12;5.82;;;5.43;;
8663;SDS011;4369;47.842;13.096;2022-07-23T13:36:39;6.55;;;6.05;;
8663;SDS011;4369;47.842;13.096;2022-07-23T13:39:08;6.72;;;6.03;;
8663;SDS011;4369;47.842;13.096;2022-07-23T13:41:35;6.45;;;5.75;;
8663;SDS011;4369;47.842;13.096;2022-07-23T13:44:02;6.50;;;6.00;;
8663;SDS011;4369;47.842;13.096;2022-07-23T13:46:29;7.90;;;6.07;;
8663;SDS011;4369;47.842;13.096;2022-07-23T13:48:56;6.93;;;6.30;;
8663;SDS011;4369;47.842;13.096;2022-07-23T13:51:24;6.55;;;6.03;;
8663;SDS011;4369;47.842;13.096;2022-07-23T13:53:51;6.63;;;6.13;;
8663;SDS011;4369;47.842;13.096;2022-07-23T13:56:19;7.10;;;6.40;;
8663;SDS011;4369;47.842;13.096;2022-07-23T13:58:46;6.22;;;5.70;;
8663;SDS011;4369;47.842;13.096;2022-07-23T14:01:13;6.88;;;6.30;;
8663;SDS011;4369;47.842;13.096;2022-07-23T14:03:40;6.50;;;5.90;;
8663;SDS011;4369;47.842;13.096;2022-07-23T14:06:06;6.70;;;6.10;;
8663;SDS011;4369;47.842;13.096;2022-07-23T14:08:35;7.28;;;6.32;;
8663;SDS011;4369;47.842;13.096;2022-07-23T14:11:02;6.85;;;6.28;;
8663;SDS011;4369;47.842;13.096;2022-07-23T14:13:28;6.47;;;5.97;;
8663;SDS011;4369;47.842;13.096;2022-07-23T14:15:55;6.45;;;5.95;;
8663;SDS011;4369;47.842;13.096;2022-07-23T14:18:22;6.72;;;6.10;;
8663;SDS011;4369;47.842;13.096;2022-07-23T14:20:49;6.53;;;5.90;;
8663;SDS011;4369;47.842;13.096;2022-07-23T14:23:16;6.45;;;5.82;;
8663;SDS011;4369;47.842;13.096;2022-07-23T14:25:44;6.65;;;6.05;;
8663;SDS011;4369;47.842;13.096;2022-07-23T14:28:11;6.57;;;5.97;;
8663;SDS011;4369;47.842;13.096;2022-07-23T14:30:38;6.97;;;6.38;;
8663;SDS011;4369;47.842;13.096;2022-07-23T14:33:05;6.55;;;5.97;;
8663;SDS011;4369;47.842;13.096;2022-07-23T14:35:31;7.30;;;6.60;;
8663;SDS011;4369;47.842;13.096;2022-07-23T14:37:58;7.38;;;5.65;;
8663;SDS011;4369;47.842;13.096;2022-07-23T14:40:25;5.90;;;5.40;;
8663;SDS011;4369;47.842;13.096;2022-07-23T14:42:53;6.22;;;5.68;;
8663;SDS011;4369;47.842;13.096;2022-07-23T14:45:20;6.15;;;5.60;;
8663;SDS011;4369;47.842;13.096;2022-07-23T14:47:47;6.00;;;5.38;;
8663;SDS011;4369;47.842;13.096;2022-07-23T14:50:14;6.32;;;5.57;;
8663;SDS011;4369;47.842;13.096;2022-07-23T14:52:43;6.03;;;5.45;;
8663;SDS011;4369;47.842;13.096;2022-07-23T14:55:10;5.28;;;4.78;;
8663;SDS011;4369;47.842;13.096;2022-07-23T14:57:36;6.10;;;5.00;;
8663;SDS011;4369;47.842;13.096;2022-07-23T15:00:05;5.25;;;4.75;;
8663;SDS011;4369;47.842;13.096;2022-07-23T15:02:33;5.07;;;4.55;;
8663;SDS011;4369;47.842;13.096;2022-07-23T15:05:00;7.18;;;5.22;;
8663;SDS011;4369;47.842;13.096;2022-07-23T15:07:27;5.80;;;5.30;;
8663;SDS011;4369;47.842;13.096;2022-07-23T15:09:55;5.75;;;5.35;;
8663;SDS011;4369;47.842;13.096;2022-07-23T15:12:22;5.20;;;4.65;;
8663;SDS011;4369;47.842;13.096;2022-07-23T15:14:49;5.97;;;5.38;;
8663;SDS011;4369;47.842;13.096;2022-07-23T15:17:17;5.32;;;4.93;;
8663;SDS011;4369;47.842;13.096;2022-07-23T15:19:44;5.07;;;4.68;;
8663;SDS011;4369;47.842;13.096;2022-07-23T15:22:10;5.50;;;4.75;;
8663;SDS011;4369;47.842;13.096;2022-07-23T15:24:37;5.60;;;5.10;;
8663;SDS011;4369;47.842;13.096;2022-07-23T15:27:04;5.22;;;4.82;;
8663;SDS011;4369;47.842;13.096;2022-07-23T15:29:31;5.72;;;5.32;;